sensor_id;sensor_type;location;lat;lon;timestamp;P1;durP1;ratioP1;P2;durP2;ratioP2
72755;SDS011;60881;55.002;73.232;2022-08-21T00:00:20;8.45;;;3.78;;
72755;SDS011;60881;55.002;73.232;2022-08-21T00:03:03;10.32;;;4.10;;
72755;SDS011;60881;55.002;73.232;2022-08-21T00:05:32;12.02;;;4.03;;
72755;SDS011;60881;55.002;73.232;2022-08-21T00:08:02;7.32;;;4.05;;
72755;SDS011;60881;55.002;73.232;2022-08-21T00:10:29;9.35;;;4.05;;
72755;SDS011;60881;55.002;73.232;2022-08-21T00:12:56;9.30;;;3.97;;
72755;SDS011;60881;55.002;73.232;2022-08-21T00:15:24;6.55;;;3.85;;
72755;SDS011;60881;55.002;73.232;2022-08-21T00:17:53;12.93;;;4.18;;
72755;SDS011;60881;55.002;73.232;2022-08-21T00:20:20;10.18;;;3.95;;
72755;SDS011;60881;55.002;73.232;2022-08-21T00:22:49;10.05;;;4.00;;
72755;SDS011;60881;55.002;73.232;2022-08-21T00:25:16;7.60;;;3.80;;
72755;SDS011;60881;55.002;73.232;2022-08-21T00:27:45;9.32;;;3.90;;
72755;SDS011;60881;55.002;73.232;2022-08-21T00:30:13;7.55;;;4.05;;
72755;SDS011;60881;55.002;73.232;2022-08-21T00:32:41;6.82;;;4.03;;
72755;SDS011;60881;55.002;73.232;2022-08-21T00:35:12;12.57;;;4.00;;
72755;SDS011;60881;55.002;73.232;2022-08-21T00:37:46;7.60;;;4.10;;
72755;SDS011;60881;55.002;73.232;2022-08-21T00:40:46;7.63;;;3.40;;
72755;SDS011;60881;55.002;73.232;2022-08-21T00:43:12;9.05;;;3.70;;
72755;SDS011;60881;55.002;73.232;2022-08-21T00:45:52;10.75;;;3.88;;
72755;SDS011;60881;55.002;73.232;2022-08-21T00:48:19;9.70;;;3.80;;
72755;SDS011;60881;55.002;73.232;2022-08-21T00:51:00;10.65;;;4.18;;
72755;SDS011;60881;55.002;73.232;2022-08-21T00:53:38;18.95;;;4.18;;
72755;SDS011;60881;55.002;73.232;2022-08-21T00:56:17;11.07;;;4.10;;
72755;SDS011;60881;55.002;73.232;2022-08-21T00:58:45;9.73;;;4.28;;
72755;SDS011;60881;55.002;73.232;2022-08-21T01:01:14;10.20;;;4.00;;
72755;SDS011;60881;55.002;73.232;2022-08-21T01:03:42;7.63;;;3.90;;
72755;SDS011;60881;55.002;73.232;2022-08-21T01:06:11;12.25;;;4.57;;
72755;SDS011;60881;55.002;73.232;2022-08-21T01:08:38;11.73;;;4.70;;
72755;SDS011;60881;55.002;73.232;2022-08-21T01:11:11;13.93;;;4.32;;
72755;SDS011;60881;55.002;73.232;2022-08-21T01:13:39;9.68;;;4.38;;
72755;SDS011;60881;55.002;73.232;2022-08-21T01:16:11;12.10;;;4.20;;
72755;SDS011;60881;55.002;73.232;2022-08-21T01:18:45;13.43;;;4.13;;
72755;SDS011;60881;55.002;73.232;2022-08-21T01:21:20;12.52;;;4.45;;
72755;SDS011;60881;55.002;73.232;2022-08-21T01:23:49;17.02;;;4.55;;
72755;SDS011;60881;55.002;73.232;2022-08-21T01:26:23;13.50;;;4.47;;
72755;SDS011;60881;55.002;73.232;2022-08-21T01:29:16;9.55;;;4.30;;
72755;SDS011;60881;55.002;73.232;2022-08-21T01:31:48;8.90;;;4.43;;
72755;SDS011;60881;55.002;73.232;2022-08-21T01:34:15;6.10;;;3.67;;
72755;SDS011;60881;55.002;73.232;2022-08-21T01:36:42;8.70;;;4.22;;
72755;SDS011;60881;55.002;73.232;2022-08-21T01:39:10;12.63;;;4.40;;
72755;SDS011;60881;55.002;73.232;2022-08-21T01:41:37;12.57;;;4.40;;
72755;SDS011;60881;55.002;73.232;2022-08-21T01:44:05;10.70;;;4.45;;
72755;SDS011;60881;55.002;73.232;2022-08-21T01:46:33;7.97;;;4.30;;
72755;SDS011;60881;55.002;73.232;2022-08-21T01:49:00;9.07;;;4.72;;
72755;SDS011;60881;55.002;73.232;2022-08-21T01:51:27;9.70;;;4.50;;
72755;SDS011;60881;55.002;73.232;2022-08-21T01:53:54;12.65;;;4.38;;
72755;SDS011;60881;55.002;73.232;2022-08-21T01:56:21;17.65;;;4.32;;
72755;SDS011;60881;55.002;73.232;2022-08-21T01:58:48;6.93;;;4.00;;
72755;SDS011;60881;55.002;73.232;2022-08-21T02:01:15;8.70;;;4.43;;
72755;SDS011;60881;55.002;73.232;2022-08-21T02:03:47;15.23;;;4.40;;
72755;SDS011;60881;55.002;73.232;2022-08-21T02:06:24;9.57;;;4.28;;
72755;SDS011;60881;55.002;73.232;2022-08-21T02:08:51;10.95;;;4.40;;
72755;SDS011;60881;55.002;73.232;2022-08-21T02:11:18;13.00;;;5.35;;
72755;SDS011;60881;55.002;73.232;2022-08-21T02:13:45;10.48;;;4.82;;
72755;SDS011;60881;55.002;73.232;2022-08-21T02:16:13;20.85;;;4.60;;
72755;SDS011;60881;55.002;73.232;2022-08-21T02:18:40;15.57;;;4.65;;
72755;SDS011;60881;55.002;73.232;2022-08-21T02:21:07;10.15;;;4.90;;
72755;SDS011;60881;55.002;73.232;2022-08-21T02:23:35;12.40;;;5.28;;
72755;SDS011;60881;55.002;73.232;2022-08-21T02:26:03;10.05;;;4.25;;
72755;SDS011;60881;55.002;73.232;2022-08-21T02:28:32;10.05;;;4.25;;
72755;SDS011;60881;55.002;73.232;2022-08-21T02:30:59;10.38;;;4.03;;
72755;SDS011;60881;55.002;73.232;2022-08-21T02:33:27;11.77;;;4.00;;
72755;SDS011;60881;55.002;73.232;2022-08-21T02:35:54;10.02;;;4.10;;
72755;SDS011;60881;55.002;73.232;2022-08-21T02:38:27;10.13;;;4.45;;
72755;SDS011;60881;55.002;73.232;2022-08-21T02:40:56;10.23;;;3.90;;
72755;SDS011;60881;55.002;73.232;2022-08-21T02:43:23;8.45;;;3.88;;
72755;SDS011;60881;55.002;73.232;2022-08-21T02:45:52;12.95;;;4.10;;
72755;SDS011;60881;55.002;73.232;2022-08-21T02:48:22;10.98;;;4.32;;
72755;SDS011;60881;55.002;73.232;2022-08-21T02:50:55;15.48;;;4.72;;
72755;SDS011;60881;55.002;73.232;2022-08-21T02:53:26;12.70;;;4.30;;
72755;SDS011;60881;55.002;73.232;2022-08-21T02:55:56;10.88;;;5.50;;
72755;SDS011;60881;55.002;73.232;2022-08-21T02:58:28;19.35;;;5.72;;
72755;SDS011;60881;55.002;73.232;2022-08-21T03:00:58;28.00;;;5.65;;
72755;SDS011;60881;55.002;73.232;2022-08-21T03:03:25;18.40;;;5.32;;
72755;SDS011;60881;55.002;73.232;2022-08-21T03:05:53;14.38;;;4.35;;
72755;SDS011;60881;55.002;73.232;2022-08-21T03:08:20;11.15;;;4.40;;
72755;SDS011;60881;55.002;73.232;2022-08-21T03:10:48;18.27;;;4.55;;
72755;SDS011;60881;55.002;73.232;2022-08-21T03:13:18;13.90;;;4.40;;
72755;SDS011;60881;55.002;73.232;2022-08-21T03:15:47;8.80;;;4.35;;
72755;SDS011;60881;55.002;73.232;2022-08-21T03:18:15;10.38;;;4.00;;
72755;SDS011;60881;55.002;73.232;2022-08-21T03:20:42;8.73;;;4.03;;
72755;SDS011;60881;55.002;73.232;2022-08-21T03:23:13;11.73;;;5.80;;
72755;SDS011;60881;55.002;73.232;2022-08-21T03:25:41;11.55;;;5.40;;
72755;SDS011;60881;55.002;73.232;2022-08-21T03:28:09;13.18;;;4.97;;
72755;SDS011;60881;55.002;73.232;2022-08-21T03:30:38;11.52;;;4.35;;
72755;SDS011;60881;55.002;73.232;2022-08-21T03:33:06;11.85;;;4.57;;
72755;SDS011;60881;55.002;73.232;2022-08-21T03:35:33;14.13;;;4.50;;
72755;SDS011;60881;55.002;73.232;2022-08-21T03:38:00;12.65;;;5.10;;
72755;SDS011;60881;55.002;73.232;2022-08-21T03:40:26;13.85;;;5.10;;
72755;SDS011;60881;55.002;73.232;2022-08-21T03:42:53;13.30;;;5.70;;
72755;SDS011;60881;55.002;73.232;2022-08-21T03:45:30;11.85;;;6.15;;
72755;SDS011;60881;55.002;73.232;2022-08-21T03:47:58;16.70;;;5.65;;
72755;SDS011;60881;55.002;73.232;2022-08-21T03:50:28;14.80;;;6.75;;
72755;SDS011;60881;55.002;73.232;2022-08-21T03:52:57;17.38;;;6.93;;
72755;SDS011;60881;55.002;73.232;2022-08-21T03:55:26;21.13;;;7.60;;
72755;SDS011;60881;55.002;73.232;2022-08-21T03:57:53;16.88;;;7.95;;
72755;SDS011;60881;55.002;73.232;2022-08-21T04:00:20;18.88;;;7.57;;
72755;SDS011;60881;55.002;73.232;2022-08-21T04:02:49;18.02;;;7.43;;
72755;SDS011;60881;55.002;73.232;2022-08-21T04:05:17;17.92;;;6.57;;
72755;SDS011;60881;55.002;73.232;2022-08-21T04:08:03;20.33;;;8.98;;
72755;SDS011;60881;55.002;73.232;2022-08-21T04:10:34;11.55;;;6.22;;
72755;SDS011;60881;55.002;73.232;2022-08-21T04:13:03;10.65;;;6.07;;
72755;SDS011;60881;55.002;73.232;2022-08-21T04:15:31;15.30;;;5.80;;
72755;SDS011;60881;55.002;73.232;2022-08-21T04:18:03;12.93;;;6.60;;
72755;SDS011;60881;55.002;73.232;2022-08-21T04:20:31;11.85;;;5.70;;
72755;SDS011;60881;55.002;73.232;2022-08-21T04:23:00;13.10;;;7.43;;
72755;SDS011;60881;55.002;73.232;2022-08-21T04:25:29;20.25;;;10.90;;
72755;SDS011;60881;55.002;73.232;2022-08-21T04:28:03;21.33;;;11.13;;
72755;SDS011;60881;55.002;73.232;2022-08-21T04:30:29;12.73;;;6.20;;
72755;SDS011;60881;55.002;73.232;2022-08-21T04:32:57;15.35;;;6.13;;
72755;SDS011;60881;55.002;73.232;2022-08-21T04:35:24;17.00;;;8.82;;
72755;SDS011;60881;55.002;73.232;2022-08-21T04:37:53;16.42;;;7.10;;
72755;SDS011;60881;55.002;73.232;2022-08-21T04:40:22;14.45;;;7.10;;
72755;SDS011;60881;55.002;73.232;2022-08-21T04:42:52;17.30;;;6.53;;
72755;SDS011;60881;55.002;73.232;2022-08-21T04:47:53;11.05;;;5.80;;
72755;SDS011;60881;55.002;73.232;2022-08-21T04:56:02;12.52;;;5.82;;
72755;SDS011;60881;55.002;73.232;2022-08-21T04:58:33;16.85;;;7.63;;
72755;SDS011;60881;55.002;73.232;2022-08-21T05:01:01;9.98;;;5.25;;
72755;SDS011;60881;55.002;73.232;2022-08-21T05:03:29;9.65;;;5.03;;
72755;SDS011;60881;55.002;73.232;2022-08-21T05:05:59;8.50;;;4.25;;
72755;SDS011;60881;55.002;73.232;2022-08-21T05:08:26;8.00;;;4.00;;
72755;SDS011;60881;55.002;73.232;2022-08-21T05:10:53;9.32;;;4.72;;
72755;SDS011;60881;55.002;73.232;2022-08-21T05:13:20;7.07;;;3.78;;
72755;SDS011;60881;55.002;73.232;2022-08-21T05:15:47;13.63;;;3.88;;
72755;SDS011;60881;55.002;73.232;2022-08-21T05:18:13;4.47;;;2.80;;
72755;SDS011;60881;55.002;73.232;2022-08-21T05:20:45;5.28;;;2.95;;
72755;SDS011;60881;55.002;73.232;2022-08-21T05:23:22;12.02;;;2.63;;
72755;SDS011;60881;55.002;73.232;2022-08-21T05:25:48;8.00;;;3.35;;
72755;SDS011;60881;55.002;73.232;2022-08-21T05:28:15;14.30;;;3.10;;
72755;SDS011;60881;55.002;73.232;2022-08-21T05:30:41;11.80;;;2.78;;
72755;SDS011;60881;55.002;73.232;2022-08-21T05:33:08;11.15;;;3.88;;
72755;SDS011;60881;55.002;73.232;2022-08-21T05:35:34;14.60;;;3.55;;
72755;SDS011;60881;55.002;73.232;2022-08-21T05:38:01;16.27;;;3.30;;
72755;SDS011;60881;55.002;73.232;2022-08-21T05:40:28;8.43;;;4.18;;
72755;SDS011;60881;55.002;73.232;2022-08-21T05:42:56;5.28;;;2.40;;
72755;SDS011;60881;55.002;73.232;2022-08-21T05:45:26;10.20;;;2.42;;
72755;SDS011;60881;55.002;73.232;2022-08-21T05:47:55;15.40;;;3.22;;
72755;SDS011;60881;55.002;73.232;2022-08-21T05:50:21;6.45;;;2.40;;
72755;SDS011;60881;55.002;73.232;2022-08-21T05:52:49;6.90;;;2.30;;
72755;SDS011;60881;55.002;73.232;2022-08-21T05:55:15;8.32;;;2.80;;
72755;SDS011;60881;55.002;73.232;2022-08-21T05:57:42;9.90;;;2.55;;
72755;SDS011;60881;55.002;73.232;2022-08-21T06:00:08;6.85;;;2.15;;
72755;SDS011;60881;55.002;73.232;2022-08-21T06:02:40;3.03;;;2.00;;
72755;SDS011;60881;55.002;73.232;2022-08-21T06:05:08;3.30;;;1.95;;
72755;SDS011;60881;55.002;73.232;2022-08-21T06:07:36;3.58;;;1.70;;
72755;SDS011;60881;55.002;73.232;2022-08-21T06:10:02;3.67;;;1.80;;
72755;SDS011;60881;55.002;73.232;2022-08-21T06:12:29;3.08;;;2.08;;
72755;SDS011;60881;55.002;73.232;2022-08-21T06:14:58;5.32;;;2.80;;
72755;SDS011;60881;55.002;73.232;2022-08-21T06:17:25;4.18;;;2.47;;
72755;SDS011;60881;55.002;73.232;2022-08-21T06:19:53;6.95;;;2.70;;
72755;SDS011;60881;55.002;73.232;2022-08-21T06:22:21;5.65;;;1.95;;
72755;SDS011;60881;55.002;73.232;2022-08-21T06:24:48;5.70;;;2.42;;
72755;SDS011;60881;55.002;73.232;2022-08-21T06:27:15;8.25;;;2.50;;
72755;SDS011;60881;55.002;73.232;2022-08-21T06:29:44;5.10;;;2.42;;
72755;SDS011;60881;55.002;73.232;2022-08-21T06:32:21;3.97;;;2.30;;
72755;SDS011;60881;55.002;73.232;2022-08-21T06:34:47;2.83;;;1.65;;
72755;SDS011;60881;55.002;73.232;2022-08-21T06:37:15;2.83;;;1.23;;
72755;SDS011;60881;55.002;73.232;2022-08-21T06:39:42;3.63;;;2.03;;
72755;SDS011;60881;55.002;73.232;2022-08-21T06:42:12;5.93;;;2.20;;
72755;SDS011;60881;55.002;73.232;2022-08-21T06:44:43;5.30;;;2.08;;
72755;SDS011;60881;55.002;73.232;2022-08-21T06:47:10;9.35;;;2.25;;
72755;SDS011;60881;55.002;73.232;2022-08-21T06:49:40;5.60;;;1.63;;
72755;SDS011;60881;55.002;73.232;2022-08-21T06:52:10;6.50;;;1.20;;
72755;SDS011;60881;55.002;73.232;2022-08-21T06:54:38;3.03;;;0.95;;
72755;SDS011;60881;55.002;73.232;2022-08-21T06:57:06;2.40;;;0.80;;
72755;SDS011;60881;55.002;73.232;2022-08-21T06:59:33;1.85;;;0.80;;
72755;SDS011;60881;55.002;73.232;2022-08-21T07:02:00;3.42;;;1.23;;
72755;SDS011;60881;55.002;73.232;2022-08-21T07:04:27;1.58;;;1.10;;
72755;SDS011;60881;55.002;73.232;2022-08-21T07:06:53;1.50;;;0.70;;
72755;SDS011;60881;55.002;73.232;2022-08-21T07:09:20;1.55;;;0.88;;
72755;SDS011;60881;55.002;73.232;2022-08-21T07:11:50;1.05;;;0.60;;
72755;SDS011;60881;55.002;73.232;2022-08-21T07:14:18;5.07;;;0.70;;
72755;SDS011;60881;55.002;73.232;2022-08-21T07:16:46;4.38;;;1.50;;
72755;SDS011;60881;55.002;73.232;2022-08-21T07:19:14;5.53;;;1.20;;
72755;SDS011;60881;55.002;73.232;2022-08-21T07:21:41;10.90;;;3.15;;
72755;SDS011;60881;55.002;73.232;2022-08-21T07:24:08;4.32;;;1.00;;
72755;SDS011;60881;55.002;73.232;2022-08-21T07:26:35;1.77;;;0.60;;
72755;SDS011;60881;55.002;73.232;2022-08-21T07:29:02;3.05;;;0.93;;
72755;SDS011;60881;55.002;73.232;2022-08-21T07:31:30;5.65;;;0.73;;
72755;SDS011;60881;55.002;73.232;2022-08-21T07:33:58;5.65;;;0.70;;
72755;SDS011;60881;55.002;73.232;2022-08-21T07:36:25;2.58;;;0.50;;
72755;SDS011;60881;55.002;73.232;2022-08-21T07:38:52;7.18;;;0.93;;
72755;SDS011;60881;55.002;73.232;2022-08-21T07:41:32;9.93;;;1.05;;
72755;SDS011;60881;55.002;73.232;2022-08-21T07:44:01;7.40;;;3.33;;
72755;SDS011;60881;55.002;73.232;2022-08-21T07:46:29;3.63;;;0.80;;
72755;SDS011;60881;55.002;73.232;2022-08-21T07:48:56;3.03;;;0.90;;
72755;SDS011;60881;55.002;73.232;2022-08-21T07:51:23;1.42;;;0.60;;
72755;SDS011;60881;55.002;73.232;2022-08-21T07:53:53;4.18;;;0.73;;
72755;SDS011;60881;55.002;73.232;2022-08-21T07:56:22;1.58;;;0.57;;
72755;SDS011;60881;55.002;73.232;2022-08-21T07:58:48;5.05;;;0.68;;
72755;SDS011;60881;55.002;73.232;2022-08-21T08:01:15;1.20;;;0.57;;
72755;SDS011;60881;55.002;73.232;2022-08-21T08:03:42;1.00;;;0.50;;
72755;SDS011;60881;55.002;73.232;2022-08-21T08:06:11;4.80;;;0.50;;
72755;SDS011;60881;55.002;73.232;2022-08-21T08:08:39;7.35;;;0.63;;
72755;SDS011;60881;55.002;73.232;2022-08-21T08:11:08;3.20;;;0.90;;
72755;SDS011;60881;55.002;73.232;2022-08-21T08:13:39;3.08;;;0.82;;
72755;SDS011;60881;55.002;73.232;2022-08-21T08:16:07;3.58;;;0.98;;
72755;SDS011;60881;55.002;73.232;2022-08-21T08:18:34;6.93;;;0.85;;
72755;SDS011;60881;55.002;73.232;2022-08-21T08:21:00;1.88;;;0.73;;
72755;SDS011;60881;55.002;73.232;2022-08-21T08:23:26;2.13;;;0.90;;
72755;SDS011;60881;55.002;73.232;2022-08-21T08:25:53;5.18;;;1.05;;
72755;SDS011;60881;55.002;73.232;2022-08-21T08:28:20;5.22;;;1.40;;
72755;SDS011;60881;55.002;73.232;2022-08-21T08:30:48;2.80;;;1.23;;
72755;SDS011;60881;55.002;73.232;2022-08-21T08:33:15;3.10;;;1.23;;
72755;SDS011;60881;55.002;73.232;2022-08-21T08:35:44;3.40;;;1.30;;
72755;SDS011;60881;55.002;73.232;2022-08-21T08:38:13;5.18;;;1.77;;
72755;SDS011;60881;55.002;73.232;2022-08-21T08:40:53;6.13;;;1.20;;
72755;SDS011;60881;55.002;73.232;2022-08-21T08:43:27;6.38;;;1.13;;
72755;SDS011;60881;55.002;73.232;2022-08-21T08:45:56;3.25;;;1.02;;
72755;SDS011;60881;55.002;73.232;2022-08-21T08:48:45;3.53;;;1.20;;
72755;SDS011;60881;55.002;73.232;2022-08-21T08:51:22;4.28;;;1.02;;
72755;SDS011;60881;55.002;73.232;2022-08-21T08:53:54;4.13;;;1.02;;
72755;SDS011;60881;55.002;73.232;2022-08-21T08:56:32;8.65;;;1.42;;
72755;SDS011;60881;55.002;73.232;2022-08-21T08:59:13;8.40;;;1.40;;
72755;SDS011;60881;55.002;73.232;2022-08-21T09:01:48;10.55;;;1.60;;
72755;SDS011;60881;55.002;73.232;2022-08-21T09:04:17;3.50;;;1.17;;
72755;SDS011;60881;55.002;73.232;2022-08-21T09:17:55;5.47;;;1.35;;
72755;SDS011;60881;55.002;73.232;2022-08-21T09:21:01;2.55;;;1.02;;
72755;SDS011;60881;55.002;73.232;2022-08-21T09:23:42;5.30;;;1.20;;
72755;SDS011;60881;55.002;73.232;2022-08-21T09:26:14;5.75;;;0.93;;
72755;SDS011;60881;55.002;73.232;2022-08-21T09:28:42;7.32;;;1.45;;
72755;SDS011;60881;55.002;73.232;2022-08-21T09:31:21;2.55;;;1.10;;
72755;SDS011;60881;55.002;73.232;2022-08-21T09:33:56;4.75;;;1.00;;
72755;SDS011;60881;55.002;73.232;2022-08-21T09:36:43;7.88;;;1.02;;
72755;SDS011;60881;55.002;73.232;2022-08-21T09:39:23;3.53;;;1.00;;
72755;SDS011;60881;55.002;73.232;2022-08-21T09:41:57;6.80;;;1.27;;
72755;SDS011;60881;55.002;73.232;2022-08-21T09:44:37;3.40;;;1.08;;
72755;SDS011;60881;55.002;73.232;2022-08-21T09:47:10;4.50;;;1.15;;
72755;SDS011;60881;55.002;73.232;2022-08-21T09:49:42;4.93;;;1.35;;
72755;SDS011;60881;55.002;73.232;2022-08-21T09:52:20;10.25;;;1.23;;
72755;SDS011;60881;55.002;73.232;2022-08-21T09:54:50;6.15;;;1.30;;
72755;SDS011;60881;55.002;73.232;2022-08-21T09:57:27;2.75;;;1.15;;
72755;SDS011;60881;55.002;73.232;2022-08-21T10:00:15;5.18;;;1.30;;
72755;SDS011;60881;55.002;73.232;2022-08-21T10:02:46;7.53;;;1.20;;
72755;SDS011;60881;55.002;73.232;2022-08-21T10:07:45;14.98;;;2.65;;
72755;SDS011;60881;55.002;73.232;2022-08-21T10:10:17;8.80;;;3.22;;
72755;SDS011;60881;55.002;73.232;2022-08-21T10:18:36;7.90;;;3.42;;
72755;SDS011;60881;55.002;73.232;2022-08-21T10:24:14;9.88;;;3.83;;
72755;SDS011;60881;55.002;73.232;2022-08-21T10:32:25;7.22;;;2.50;;
72755;SDS011;60881;55.002;73.232;2022-08-21T10:35:29;6.30;;;1.70;;
72755;SDS011;60881;55.002;73.232;2022-08-21T10:49:45;7.28;;;1.80;;
72755;SDS011;60881;55.002;73.232;2022-08-21T10:55:22;5.10;;;1.40;;
72755;SDS011;60881;55.002;73.232;2022-08-21T10:58:04;2.50;;;1.45;;
72755;SDS011;60881;55.002;73.232;2022-08-21T11:03:39;6.13;;;1.40;;
72755;SDS011;60881;55.002;73.232;2022-08-21T11:09:29;4.45;;;1.60;;
72755;SDS011;60881;55.002;73.232;2022-08-21T11:11:44;4.35;;;2.00;;
72755;SDS011;60881;55.002;73.232;2022-08-21T11:17:15;10.20;;;2.25;;
72755;SDS011;60881;55.002;73.232;2022-08-21T11:19:59;10.25;;;4.35;;
72755;SDS011;60881;55.002;73.232;2022-08-21T11:22:31;11.90;;;4.70;;
72755;SDS011;60881;55.002;73.232;2022-08-21T11:27:46;12.10;;;1.73;;
72755;SDS011;60881;55.002;73.232;2022-08-21T11:36:16;7.43;;;2.15;;
72755;SDS011;60881;55.002;73.232;2022-08-21T11:39:19;4.70;;;1.70;;
72755;SDS011;60881;55.002;73.232;2022-08-21T11:41:47;4.63;;;1.40;;
72755;SDS011;60881;55.002;73.232;2022-08-21T11:47:56;6.82;;;1.83;;
72755;SDS011;60881;55.002;73.232;2022-08-21T11:50:31;5.60;;;1.48;;
72755;SDS011;60881;55.002;73.232;2022-08-21T11:55:47;10.13;;;1.35;;
72755;SDS011;60881;55.002;73.232;2022-08-21T12:03:44;9.23;;;2.30;;
72755;SDS011;60881;55.002;73.232;2022-08-21T12:06:30;12.70;;;2.40;;
72755;SDS011;60881;55.002;73.232;2022-08-21T12:09:06;11.23;;;1.73;;
72755;SDS011;60881;55.002;73.232;2022-08-21T12:12:39;7.43;;;2.50;;
72755;SDS011;60881;55.002;73.232;2022-08-21T12:15:05;5.53;;;1.30;;
72755;SDS011;60881;55.002;73.232;2022-08-21T12:17:35;6.80;;;1.90;;
72755;SDS011;60881;55.002;73.232;2022-08-21T12:22:53;7.82;;;1.90;;
72755;SDS011;60881;55.002;73.232;2022-08-21T12:25:38;12.10;;;2.60;;
72755;SDS011;60881;55.002;73.232;2022-08-21T12:28:35;5.72;;;1.92;;
72755;SDS011;60881;55.002;73.232;2022-08-21T12:31:03;6.15;;;1.80;;
72755;SDS011;60881;55.002;73.232;2022-08-21T12:33:37;7.10;;;1.48;;
72755;SDS011;60881;55.002;73.232;2022-08-21T12:38:51;12.88;;;2.17;;
72755;SDS011;60881;55.002;73.232;2022-08-21T12:41:33;8.20;;;1.40;;
72755;SDS011;60881;55.002;73.232;2022-08-21T12:44:11;5.95;;;1.40;;
72755;SDS011;60881;55.002;73.232;2022-08-21T12:46:53;5.47;;;1.90;;
72755;SDS011;60881;55.002;73.232;2022-08-21T12:49:27;10.07;;;2.20;;
72755;SDS011;60881;55.002;73.232;2022-08-21T12:54:36;12.07;;;1.98;;
72755;SDS011;60881;55.002;73.232;2022-08-21T12:57:05;8.07;;;2.13;;
72755;SDS011;60881;55.002;73.232;2022-08-21T12:59:36;7.95;;;1.90;;
72755;SDS011;60881;55.002;73.232;2022-08-21T13:02:10;9.10;;;1.75;;
72755;SDS011;60881;55.002;73.232;2022-08-21T13:04:43;12.20;;;1.88;;
72755;SDS011;60881;55.002;73.232;2022-08-21T13:07:19;5.50;;;1.63;;
72755;SDS011;60881;55.002;73.232;2022-08-21T13:09:56;5.72;;;1.77;;
72755;SDS011;60881;55.002;73.232;2022-08-21T13:12:35;8.43;;;1.80;;
72755;SDS011;60881;55.002;73.232;2022-08-21T13:15:03;7.28;;;2.17;;
72755;SDS011;60881;55.002;73.232;2022-08-21T13:17:33;11.93;;;2.50;;
72755;SDS011;60881;55.002;73.232;2022-08-21T13:20:06;12.23;;;2.50;;
72755;SDS011;60881;55.002;73.232;2022-08-21T13:22:42;8.10;;;1.38;;
72755;SDS011;60881;55.002;73.232;2022-08-21T13:25:11;10.35;;;1.90;;
72755;SDS011;60881;55.002;73.232;2022-08-21T13:27:43;9.13;;;1.98;;
72755;SDS011;60881;55.002;73.232;2022-08-21T13:30:18;6.88;;;1.83;;
72755;SDS011;60881;55.002;73.232;2022-08-21T13:32:48;7.53;;;1.80;;
72755;SDS011;60881;55.002;73.232;2022-08-21T13:35:31;7.80;;;2.50;;
72755;SDS011;60881;55.002;73.232;2022-08-21T13:38:11;6.97;;;1.75;;
72755;SDS011;60881;55.002;73.232;2022-08-21T13:40:40;7.28;;;2.00;;
72755;SDS011;60881;55.002;73.232;2022-08-21T13:43:13;7.13;;;2.25;;
72755;SDS011;60881;55.002;73.232;2022-08-21T13:45:43;6.53;;;2.10;;
72755;SDS011;60881;55.002;73.232;2022-08-21T13:48:15;6.20;;;2.10;;
72755;SDS011;60881;55.002;73.232;2022-08-21T13:50:41;6.50;;;1.95;;
72755;SDS011;60881;55.002;73.232;2022-08-21T13:53:21;10.90;;;2.83;;
72755;SDS011;60881;55.002;73.232;2022-08-21T13:56:03;11.90;;;2.42;;
72755;SDS011;60881;55.002;73.232;2022-08-21T14:04:03;16.42;;;2.40;;
72755;SDS011;60881;55.002;73.232;2022-08-21T14:06:34;9.30;;;2.35;;
72755;SDS011;60881;55.002;73.232;2022-08-21T14:09:35;10.20;;;1.98;;
72755;SDS011;60881;55.002;73.232;2022-08-21T14:12:19;10.30;;;2.03;;
72755;SDS011;60881;55.002;73.232;2022-08-21T14:15:24;18.95;;;1.90;;
72755;SDS011;60881;55.002;73.232;2022-08-21T14:17:54;6.40;;;2.10;;
72755;SDS011;60881;55.002;73.232;2022-08-21T14:20:37;6.80;;;2.10;;
72755;SDS011;60881;55.002;73.232;2022-08-21T14:23:04;13.45;;;2.08;;
72755;SDS011;60881;55.002;73.232;2022-08-21T14:25:40;5.70;;;1.60;;
72755;SDS011;60881;55.002;73.232;2022-08-21T14:30:47;8.75;;;2.25;;
72755;SDS011;60881;55.002;73.232;2022-08-21T14:33:17;9.40;;;2.47;;
72755;SDS011;60881;55.002;73.232;2022-08-21T14:35:52;6.22;;;1.90;;
72755;SDS011;60881;55.002;73.232;2022-08-21T14:38:24;7.45;;;2.13;;
72755;SDS011;60881;55.002;73.232;2022-08-21T14:40:53;4.72;;;1.85;;
72755;SDS011;60881;55.002;73.232;2022-08-21T14:43:25;13.20;;;2.05;;
72755;SDS011;60881;55.002;73.232;2022-08-21T14:45:54;13.32;;;2.03;;
72755;SDS011;60881;55.002;73.232;2022-08-21T14:48:22;11.90;;;2.20;;
72755;SDS011;60881;55.002;73.232;2022-08-21T14:50:50;9.85;;;2.60;;
72755;SDS011;60881;55.002;73.232;2022-08-21T14:53:17;10.18;;;3.40;;
72755;SDS011;60881;55.002;73.232;2022-08-21T14:55:44;11.57;;;3.28;;
72755;SDS011;60881;55.002;73.232;2022-08-21T14:58:39;6.90;;;2.95;;
72755;SDS011;60881;55.002;73.232;2022-08-21T15:01:09;11.85;;;2.72;;
72755;SDS011;60881;55.002;73.232;2022-08-21T15:03:39;9.52;;;3.25;;
72755;SDS011;60881;55.002;73.232;2022-08-21T15:06:06;11.20;;;3.67;;
72755;SDS011;60881;55.002;73.232;2022-08-21T15:08:35;7.97;;;3.47;;
72755;SDS011;60881;55.002;73.232;2022-08-21T15:11:12;14.55;;;4.40;;
72755;SDS011;60881;55.002;73.232;2022-08-21T15:13:47;21.05;;;5.10;;
72755;SDS011;60881;55.002;73.232;2022-08-21T15:16:17;17.92;;;5.07;;
72755;SDS011;60881;55.002;73.232;2022-08-21T15:18:44;25.98;;;5.93;;
72755;SDS011;60881;55.002;73.232;2022-08-21T15:21:11;30.90;;;5.30;;
72755;SDS011;60881;55.002;73.232;2022-08-21T15:23:38;18.20;;;6.13;;
72755;SDS011;60881;55.002;73.232;2022-08-21T15:26:04;26.83;;;5.50;;
72755;SDS011;60881;55.002;73.232;2022-08-21T15:28:31;18.27;;;5.07;;
72755;SDS011;60881;55.002;73.232;2022-08-21T15:30:59;22.55;;;4.47;;
72755;SDS011;60881;55.002;73.232;2022-08-21T15:33:27;17.98;;;3.42;;
72755;SDS011;60881;55.002;73.232;2022-08-21T15:35:54;11.45;;;2.65;;
72755;SDS011;60881;55.002;73.232;2022-08-21T15:38:22;9.10;;;2.10;;
72755;SDS011;60881;55.002;73.232;2022-08-21T15:40:48;10.48;;;2.30;;
72755;SDS011;60881;55.002;73.232;2022-08-21T15:43:54;6.60;;;1.90;;
72755;SDS011;60881;55.002;73.232;2022-08-21T15:46:17;8.88;;;2.05;;
72755;SDS011;60881;55.002;73.232;2022-08-21T15:48:45;11.35;;;2.20;;
72755;SDS011;60881;55.002;73.232;2022-08-21T15:51:12;6.65;;;1.83;;
72755;SDS011;60881;55.002;73.232;2022-08-21T15:53:41;9.85;;;1.83;;
72755;SDS011;60881;55.002;73.232;2022-08-21T15:56:12;7.47;;;1.80;;
72755;SDS011;60881;55.002;73.232;2022-08-21T15:58:51;6.45;;;1.90;;
72755;SDS011;60881;55.002;73.232;2022-08-21T16:01:27;7.00;;;1.75;;
72755;SDS011;60881;55.002;73.232;2022-08-21T16:03:54;6.32;;;1.52;;
72755;SDS011;60881;55.002;73.232;2022-08-21T16:06:24;9.57;;;1.70;;
72755;SDS011;60881;55.002;73.232;2022-08-21T16:08:51;8.50;;;1.50;;
72755;SDS011;60881;55.002;73.232;2022-08-21T16:11:21;5.93;;;1.40;;
72755;SDS011;60881;55.002;73.232;2022-08-21T16:13:53;7.97;;;1.60;;
72755;SDS011;60881;55.002;73.232;2022-08-21T16:16:22;6.25;;;1.50;;
72755;SDS011;60881;55.002;73.232;2022-08-21T16:18:57;11.63;;;1.40;;
72755;SDS011;60881;55.002;73.232;2022-08-21T16:21:25;4.55;;;1.42;;
72755;SDS011;60881;55.002;73.232;2022-08-21T16:23:59;9.15;;;1.55;;
72755;SDS011;60881;55.002;73.232;2022-08-21T16:26:26;7.15;;;1.40;;
72755;SDS011;60881;55.002;73.232;2022-08-21T16:29:04;5.47;;;1.70;;